Time;durP1;ratioP1;P1;durP2;ratioP2;P2;SDS_P1;SDS_P2;PMS_P1;PMS_P2;Temp;Humidity;BMP_temperature;BMP_pressure;BME280_temperature;BME280_humidity;BME280_pressure;Samples;Min_cycle;Max_cycle;Signal;HPM_P1;HPM_P2
2022/06/06 00:00:45;;;;;;;15.15;6.85;;;;;;;21.13;60.86;94834.47;4979675;28;20083;-76
2022/06/06 00:03:11;;;;;;;12.20;6.72;;;;;;;21.12;60.87;94838.97;5012675;28;20392;-76
2022/06/06 00:05:36;;;;;;;10.93;5.93;;;;;;;21.06;61.06;94828.81;4995934;28;20030;-76
2022/06/06 00:08:05;;;;;;;14.80;7.63;;;;;;;21.08;61.28;94835.38;4997282;28;20176;-76
2022/06/06 00:10:30;;;;;;;14.35;7.85;;;;;;;21.08;61.10;94827.44;5031261;28;20083;-76
2022/06/06 00:12:56;;;;;;;16.17;7.43;;;;;;;21.07;61.13;94833.03;5012625;28;20037;-75
2022/06/06 00:15:22;;;;;;;12.82;6.82;;;;;;;21.05;61.10;94843.13;4995817;28;20072;-76
2022/06/06 00:17:47;;;;;;;10.20;6.32;;;;;;;21.02;60.58;94847.13;5022714;23;20037;-75
2022/06/06 00:20:13;;;;;;;15.48;6.60;;;;;;;21.03;61.08;94824.13;5030138;28;20040;-75
2022/06/06 00:22:38;;;;;;;16.73;7.65;;;;;;;21.03;61.20;94814.34;5030178;28;20021;-76
2022/06/06 00:25:04;;;;;;;21.70;7.35;;;;;;;21.01;60.87;94811.22;5030134;28;20025;-75
2022/06/06 00:27:30;;;;;;;10.02;6.07;;;;;;;21.02;61.15;94798.78;5028965;28;20115;-76
2022/06/06 00:29:56;;;;;;;12.88;6.78;;;;;;;21.02;61.12;94799.56;5027663;28;20124;-75
2022/06/06 00:35:06;;;;;;;11.15;6.10;;;;;;;20.94;60.54;94790.44;5042431;28;20040;-76
2022/06/06 00:37:33;;;;;;;8.70;5.95;;;;;;;20.95;60.47;94772.72;5012109;28;20037;-76
2022/06/06 00:40:01;;;;;;;9.25;5.97;;;;;;;20.96;60.34;94777.72;5044937;28;20033;-75
2022/06/06 00:42:31;;;;;;;11.93;5.53;;;;;;;20.98;60.12;94783.47;5004298;28;20125;-75
2022/06/06 00:45:15;;;;;;;15.50;6.47;;;;;;;21.04;60.97;94768.31;5012410;28;20994;-76
2022/06/06 00:47:41;;;;;;;9.27;5.88;;;;;;;21.07;60.69;94767.72;5029261;28;20504;-76
2022/06/06 00:50:10;;;;;;;11.52;6.00;;;;;;;21.09;60.92;94764.75;5045050;28;20033;-75
2022/06/06 00:52:37;;;;;;;10.75;5.90;;;;;;;21.09;61.15;94754.97;5028589;28;20100;-75
2022/06/06 00:55:09;;;;;;;15.05;6.07;;;;;;;21.12;61.11;94749.06;5011253;28;20546;-76
2022/06/06 00:57:36;;;;;;;14.73;6.35;;;;;;;21.15;61.02;94745.03;5028516;28;20045;-76
2022/06/06 01:00:05;;;;;;;12.00;6.45;;;;;;;21.17;61.28;94756.13;5099901;23;20040;-76
2022/06/06 01:05:01;;;;;;;8.90;6.07;;;;;;;21.15;61.05;94739.75;5065219;22;20056;-75
2022/06/06 01:07:26;;;;;;;11.32;6.05;;;;;;;21.15;61.02;94731.81;5034742;28;20037;-76
2022/06/06 01:09:52;;;;;;;10.48;6.03;;;;;;;21.13;61.26;94723.41;5112066;22;20032;-76
2022/06/06 01:12:18;;;;;;;13.73;7.68;;;;;;;21.17;61.52;94716.47;5070064;22;20053;-75
2022/06/06 01:14:52;;;;;;;13.95;6.53;;;;;;;21.21;61.77;94701.56;5054406;28;20041;-76
2022/06/06 01:17:28;;;;;;;12.75;6.95;;;;;;;21.24;62.19;94698.31;5052241;22;20099;-76
2022/06/06 01:20:22;;;;;;;8.75;6.30;;;;;;;21.28;61.91;94715.16;5037353;28;20935;-75
2022/06/06 01:23:08;;;;;;;14.55;7.50;;;;;;;21.28;64.38;94701.94;5039179;28;20087;-75
2022/06/06 01:25:33;;;;;;;10.75;6.28;;;;;;;21.19;63.99;94701.06;5037499;28;20084;-75
2022/06/06 01:28:26;;;;;;;12.68;5.65;;;;;;;21.10;64.49;94713.44;5038848;28;20037;-75
2022/06/06 01:30:52;;;;;;;;;;;;;;;21.08;65.16;94732.25;5020542;28;20076;-75
2022/06/06 01:33:18;;;;;;;18.73;6.85;;;;;;;21.02;66.40;94743.25;5053104;28;20008;-75
2022/06/06 01:35:45;;;;;;;10.27;6.75;;;;;;;20.93;66.32;94802.09;5010933;28;20021;-75
2022/06/06 01:38:11;;;;;;;20.55;6.07;;;;;;;20.81;66.46;94865.25;5045704;28;20105;-75
2022/06/06 01:40:42;;;;;;;20.65;6.88;;;;;;;20.72;65.67;94869.66;5013913;28;20036;-75
2022/06/06 01:43:14;;;;;;;12.50;5.65;;;;;;;20.67;65.00;94883.00;5016830;28;20117;-79
2022/06/06 01:45:48;;;;;;;21.55;7.53;;;;;;;20.66;67.97;94873.47;5013118;28;20477;-80
2022/06/06 01:48:20;;;;;;;24.95;7.68;;;;;;;20.50;70.35;94843.13;5042153;22;20029;-79
2022/06/06 01:50:45;;;;;;;38.85;9.43;;;;;;;20.33;72.73;94822.53;5026351;28;20409;-78
2022/06/06 01:53:13;;;;;;;22.08;7.60;;;;;;;20.28;73.27;94830.56;5044034;28;20052;-80
2022/06/06 01:55:40;;;;;;;27.08;7.47;;;;;;;20.24;74.50;94835.66;5049119;28;20030;-79
2022/06/06 01:58:23;;;;;;;26.67;8.35;;;;;;;20.24;74.95;94848.84;5019946;28;20126;-78
2022/06/06 02:03:17;;;;;;;15.38;6.93;;;;;;;20.24;74.28;94834.88;5115894;22;20041;-80
2022/06/06 02:05:42;;;;;;;14.60;6.78;;;;;;;20.27;74.50;94837.72;5056164;28;20389;-80
2022/06/06 02:08:08;;;;;;;19.45;6.90;;;;;;;20.29;73.85;94832.13;5047432;28;20037;-78
2022/06/06 02:10:33;;;;;;;18.67;7.65;;;;;;;20.25;74.04;94842.50;5036770;28;20037;-79
2022/06/06 02:12:59;;;;;;;20.65;6.20;;;;;;;20.17;75.65;94856.38;5046939;28;20041;-79
2022/06/06 02:15:25;;;;;;;14.02;6.35;;;;;;;19.96;75.45;94865.69;5018063;28;20085;-79
2022/06/06 02:17:51;;;;;;;15.38;5.15;;;;;;;19.98;75.67;94882.03;5047810;28;20020;-79
2022/06/06 02:20:18;;;;;;;19.15;5.32;;;;;;;20.05;75.34;94898.31;5049427;28;20491;-79
2022/06/06 02:22:43;;;;;;;18.95;5.57;;;;;;;20.11;73.88;94886.56;5045983;28;20036;-79
2022/06/06 02:25:10;;;;;;;12.30;4.88;;;;;;;20.17;73.39;94913.66;5020398;28;20041;-79
2022/06/06 02:27:36;;;;;;;11.55;4.45;;;;;;;20.18;72.39;94931.09;5036292;28;20037;-78
2022/06/06 02:30:02;;;;;;;17.48;5.60;;;;;;;20.19;72.94;94951.16;5037914;28;20028;-79
2022/06/06 02:32:28;;;;;;;15.27;4.88;;;;;;;20.22;73.10;94943.44;5037598;28;20029;-78
2022/06/06 02:34:53;;;;;;;10.60;5.18;;;;;;;20.15;73.35;94940.34;5040811;28;20638;-78
2022/06/06 02:37:19;;;;;;;18.13;6.43;;;;;;;19.97;74.75;94922.69;5046129;28;20033;-81
2022/06/06 02:39:45;;;;;;;23.88;6.90;;;;;;;19.83;76.18;94906.81;5035121;28;20021;-78
2022/06/06 02:42:10;;;;;;;22.05;6.78;;;;;;;19.74;76.39;94885.56;5018550;28;20040;-79
2022/06/06 02:44:36;;;;;;;20.25;6.80;;;;;;;19.69;77.47;94877.75;5020148;28;20044;-80
2022/06/06 02:47:02;;;;;;;15.93;6.72;;;;;;;19.77;76.76;94861.25;5033332;28;20039;-80
2022/06/06 02:51:57;;;;;;;17.45;6.07;;;;;;;19.92;76.55;94801.38;5154057;22;20065;-80
2022/06/06 02:54:23;;;;;;;13.38;6.53;;;;;;;19.98;76.09;94794.94;5055353;22;20532;-80
2022/06/06 02:56:48;;;;;;;23.45;6.80;;;;;;;20.04;75.96;94785.88;5048361;28;20030;-80
2022/06/06 02:59:15;;;;;;;12.00;5.65;;;;;;;20.13;76.08;94793.88;5016829;28;20029;-80
2022/06/06 03:01:40;;;;;;;22.08;6.78;;;;;;;20.16;76.11;94775.59;5000921;28;20077;-80
2022/06/06 03:04:06;;;;;;;15.43;6.68;;;;;;;20.21;76.16;94801.13;5000387;28;20654;-79
2022/06/06 03:06:51;;;;;;;15.82;6.40;;;;;;;20.25;76.77;94797.63;5016147;28;20044;-80
2022/06/06 03:09:59;;;;;;;20.85;6.68;;;;;;;20.26;76.25;94817.66;5000137;28;20112;-79
2022/06/06 03:12:53;;;;;;;15.50;6.10;;;;;;;20.11;75.35;94828.50;5025310;28;20053;-80
2022/06/06 03:15:41;;;;;;;15.98;6.07;;;;;;;19.82;76.45;94826.06;5015380;28;20037;-80
2022/06/06 03:21:34;;;;;;;17.00;6.15;;;;;;;19.60;77.39;94853.06;5034376;28;20039;-78
2022/06/06 03:24:18;;;;;;;16.80;6.45;;;;;;;19.52;78.18;94851.03;4984407;28;20902;-79
2022/06/06 03:27:11;;;;;;;19.88;7.05;;;;;;;19.30;79.86;94866.66;5040868;22;20531;-79
2022/06/06 03:29:42;;;;;;;23.35;7.13;;;;;;;19.09;81.28;94885.41;5037109;28;20064;-79
2022/06/06 03:32:14;;;;;;;22.57;7.97;;;;;;;18.91;82.91;94895.91;5046844;28;20039;-78
2022/06/06 03:34:42;;;;;;;19.33;12.23;;;;;;;18.82;83.02;94898.34;5038445;28;20303;-79
2022/06/06 03:37:17;;;;;;;26.83;10.52;;;;;;;18.82;83.20;94896.50;5015894;28;20030;-79
2022/06/06 03:40:04;;;;;;;18.95;9.75;;;;;;;18.82;82.24;94882.56;5032814;28;20434;-79
2022/06/06 03:42:37;;;;;;;16.90;9.23;;;;;;;18.98;82.04;94878.66;5043574;23;20503;-79
2022/06/06 03:45:08;;;;;;;13.10;7.93;;;;;;;19.12;80.97;94870.84;5074486;28;20033;-79
2022/06/06 03:48:01;;;;;;;21.35;8.35;;;;;;;19.27;80.50;94881.22;5054136;28;20052;-78
2022/06/06 03:50:42;;;;;;;23.48;8.00;;;;;;;19.40;80.22;94892.91;5073138;28;20051;-78
2022/06/06 03:56:06;;;;;;;18.95;7.38;;;;;;;19.61;78.87;94886.28;5080450;22;20412;-79
2022/06/06 03:58:37;;;;;;;24.02;8.82;;;;;;;19.74;78.29;94890.06;5035024;28;20033;-80
2022/06/06 04:01:05;;;;;;;14.32;7.53;;;;;;;19.84;77.93;94878.56;5031669;28;20037;-80
2022/06/06 04:03:32;;;;;;;15.98;7.88;;;;;;;19.93;77.48;94874.19;5025729;28;20148;-79
2022/06/06 04:05:58;;;;;;;14.20;8.13;;;;;;;20.04;77.60;94888.81;5015594;28;20080;-80
2022/06/06 04:08:24;;;;;;;16.83;7.57;;;;;;;20.07;77.23;94882.94;4984326;28;20128;-79
2022/06/06 04:11:08;;;;;;;23.52;10.77;;;;;;;20.10;77.00;94871.81;5034799;28;20477;-79
2022/06/06 04:13:44;;;;;;;18.35;8.43;;;;;;;20.18;76.75;94873.78;5043747;28;20037;-80
2022/06/06 04:16:38;;;;;;;15.35;8.13;;;;;;;20.24;76.16;94883.19;5048222;28;20033;-80
2022/06/06 04:19:15;;;;;;;11.88;6.95;;;;;;;20.33;75.64;94873.50;5037604;28;20029;-80
2022/06/06 04:22:04;;;;;;;23.20;7.72;;;;;;;20.41;75.74;94876.56;5017178;28;20481;-80
2022/06/06 04:24:54;;;;;;;14.13;7.30;;;;;;;20.50;76.12;94872.19;5033914;28;20038;-80
2022/06/06 04:27:31;;;;;;;21.50;7.38;;;;;;;20.51;75.13;94871.91;5032466;28;20113;-79
2022/06/06 04:30:02;;;;;;;16.08;8.18;;;;;;;20.51;74.61;94876.44;5032805;28;20497;-79
2022/06/06 04:35:11;;;;;;;17.83;8.10;;;;;;;20.54;74.64;94860.75;5101590;22;20061;-80
2022/06/06 04:37:52;;;;;;;15.15;7.97;;;;;;;20.74;74.26;94869.38;5039872;28;20357;-78
2022/06/06 04:41:01;;;;;;;19.48;8.60;;;;;;;21.01;73.25;94873.88;5053412;28;20037;-78
2022/06/06 04:43:39;;;;;;;12.20;7.00;;;;;;;21.26;71.59;94878.66;5065360;28;20045;-79
2022/06/06 04:46:15;;;;;;;15.65;7.50;;;;;;;21.59;70.32;94873.97;5027581;28;20101;-77
2022/06/06 04:48:41;;;;;;;18.38;7.63;;;;;;;22.06;68.82;94872.63;5027369;28;20036;-80
2022/06/06 04:51:06;;;;;;;24.17;7.82;;;;;;;22.53;66.85;94874.91;5042748;28;20033;-76
2022/06/06 04:53:32;;;;;;;23.38;8.45;;;;;;;22.90;66.33;94878.97;5022758;28;20475;-76
2022/06/06 04:55:58;;;;;;;13.73;7.30;;;;;;;23.10;65.69;94886.34;5024064;28;20044;-78
2022/06/06 04:58:25;;;;;;;25.55;7.18;;;;;;;23.15;64.43;94886.22;5039493;28;20033;-77
2022/06/06 05:00:50;;;;;;;14.55;6.93;;;;;;;23.20;63.79;94878.09;5039790;28;20510;-77
2022/06/06 05:03:16;;;;;;;12.27;7.18;;;;;;;23.22;64.89;94878.56;5023736;28;20029;-78
2022/06/06 05:06:17;;;;;;;13.18;6.80;;;;;;;23.12;64.54;94881.53;5009154;28;20450;-79
2022/06/06 05:09:02;;;;;;;15.20;8.00;;;;;;;23.17;65.56;94891.22;5028337;28;20519;-78
2022/06/06 05:12:10;;;;;;;26.00;8.25;;;;;;;23.23;65.84;94892.63;5049641;28;20041;-78
2022/06/06 05:14:57;;;;;;;20.90;7.82;;;;;;;23.24;64.66;94899.47;4981859;28;20065;-78
2022/06/06 05:17:43;;;;;;;14.98;7.75;;;;;;;23.35;64.51;94901.53;5047534;28;20325;-78
2022/06/06 05:20:17;;;;;;;22.50;7.57;;;;;;;23.65;64.13;94907.06;5042644;28;20099;-78
2022/06/06 05:22:59;;;;;;;20.85;8.10;;;;;;;24.55;61.13;94904.47;5041966;28;20033;-78
2022/06/06 05:25:44;;;;;;;16.58;7.32;;;;;;;25.51;58.25;94902.16;5039330;28;20036;-77
2022/06/06 05:28:34;;;;;;;21.45;7.53;;;;;;;26.01;56.18;94894.13;5048290;28;20036;-77
2022/06/06 05:31:05;;;;;;;13.55;6.35;;;;;;;26.25;54.92;94888.91;5049531;28;20052;-78
2022/06/06 05:33:57;;;;;;;16.60;7.47;;;;;;;26.65;53.95;94891.00;5048253;28;20060;-78
2022/06/06 05:36:37;;;;;;;21.10;7.25;;;;;;;27.50;52.04;94893.69;5028223;28;20048;-78
2022/06/06 05:39:16;;;;;;;15.00;6.35;;;;;;;28.01;49.41;94894.03;5051195;28;20053;-79
2022/06/06 05:42:01;;;;;;;15.98;6.20;;;;;;;28.23;47.44;94894.59;5028921;28;20037;-78
2022/06/06 05:44:59;;;;;;;14.45;5.90;;;;;;;28.21;48.39;94894.94;5049662;28;20055;-79
2022/06/06 05:47:30;;;;;;;16.85;6.38;;;;;;;28.20;48.25;94895.28;5041952;28;20406;-79
2022/06/06 05:50:04;;;;;;;20.88;6.13;;;;;;;28.05;47.68;94902.91;5057391;28;20037;-79
2022/06/06 05:52:34;;;;;;;12.70;5.35;;;;;;;27.94;48.29;94895.69;5040991;28;20044;-78
2022/06/06 05:55:27;;;;;;;13.82;5.63;;;;;;;27.95;48.15;94892.69;5050670;28;20041;-79
2022/06/06 05:58:27;;;;;;;15.07;5.70;;;;;;;28.98;46.88;94897.31;5050209;28;20036;-78
2022/06/06 06:00:55;;;;;;;18.15;5.53;;;;;;;30.45;42.37;94883.19;5040772;28;20065;-79
2022/06/06 06:03:45;;;;;;;20.15;6.00;;;;;;;30.93;42.09;94897.06;5040975;28;20124;-79
2022/06/06 06:06:31;;;;;;;11.07;4.53;;;;;;;30.85;39.97;94901.53;5041814;28;20539;-79
2022/06/06 06:09:15;;;;;;;20.13;5.03;;;;;;;30.56;41.28;94902.16;5041168;28;20028;-79
2022/06/06 06:11:55;;;;;;;17.02;6.13;;;;;;;30.25;42.46;94911.16;5050482;28;20057;-79
2022/06/06 06:14:26;;;;;;;18.30;6.90;;;;;;;30.04;42.62;94904.25;5025012;28;20037;-79
2022/06/06 06:16:55;;;;;;;19.52;7.10;;;;;;;30.07;42.57;94900.09;5051053;28;20475;-79
2022/06/06 06:19:24;;;;;;;19.25;6.75;;;;;;;30.22;42.62;94891.19;5048313;28;20040;-78
2022/06/06 06:21:56;;;;;;;16.27;6.43;;;;;;;30.41;41.65;94893.84;5041167;28;20535;-79
2022/06/06 06:24:36;;;;;;;14.52;5.82;;;;;;;30.43;41.17;94886.22;5044573;28;20661;-79
2022/06/06 06:27:02;;;;;;;22.75;7.43;;;;;;;30.22;42.03;94901.91;5033869;28;20080;-79
2022/06/06 06:29:27;;;;;;;12.98;6.53;;;;;;;30.22;41.62;94899.22;5034876;28;20036;-79
2022/06/06 06:32:15;;;;;;;16.20;7.03;;;;;;;31.08;40.01;94898.84;5053577;28;20033;-79
2022/06/06 06:34:53;;;;;;;12.55;6.55;;;;;;;31.80;39.69;94889.91;5030833;28;20030;-78
2022/06/06 06:37:56;;;;;;;23.33;6.72;;;;;;;31.84;40.44;94886.13;5058222;28;20041;-79
2022/06/06 06:40:27;;;;;;;14.30;6.18;;;;;;;31.69;39.55;94886.28;5053770;28;20045;-79
2022/06/06 06:43:10;;;;;;;21.35;6.65;;;;;;;32.20;39.13;94881.16;5060183;28;20033;-79
2022/06/06 06:45:48;;;;;;;30.67;6.72;;;;;;;34.00;35.85;94872.16;5027457;28;20041;-79
2022/06/06 06:48:21;;;;;;;14.40;5.82;;;;;;;35.25;33.71;94865.03;5042786;28;20033;-78
2022/06/06 06:51:08;;;;;;;19.63;6.18;;;;;;;36.28;31.83;94856.59;5043007;28;20041;-78
2022/06/06 06:53:38;;;;;;;15.63;5.40;;;;;;;37.80;29.14;94850.34;5070644;28;20013;-78
2022/06/06 06:56:36;;;;;;;16.55;5.82;;;;;;;38.34;27.86;94845.00;5065046;28;20139;-78
2022/06/06 06:59:22;;;;;;;12.52;5.20;;;;;;;38.79;26.98;94842.03;5060899;28;20033;-78
2022/06/06 07:10:41;;;;;;;15.57;5.90;;;;;;;38.41;26.89;94834.06;5045445;28;20044;-79
2022/06/06 07:13:12;;;;;;;31.67;5.50;;;;;;;38.15;27.85;94833.59;5035754;28;20112;-79
2022/06/06 07:15:58;;;;;;;18.73;5.82;;;;;;;37.67;28.62;94830.31;5044272;28;20079;-79
2022/06/06 07:18:26;;;;;;;19.80;5.32;;;;;;;36.86;29.57;94817.16;5043251;28;20033;-79
2022/06/06 07:20:52;;;;;;;17.33;5.50;;;;;;;36.12;30.25;94812.19;5043039;28;20029;-80
2022/06/06 07:23:17;;;;;;;20.23;5.65;;;;;;;35.48;30.72;94814.03;5026975;28;20037;-78
2022/06/06 07:25:50;;;;;;;19.48;5.70;;;;;;;34.99;31.56;94814.13;5011464;28;20102;-78
2022/06/06 07:28:16;;;;;;;31.95;6.25;;;;;;;34.79;33.55;94811.75;5008664;28;20033;-78
2022/06/06 07:30:46;;;;;;;18.27;5.30;;;;;;;34.47;33.00;94813.69;5042076;28;20083;-78
2022/06/06 07:33:49;;;;;;;27.92;5.60;;;;;;;33.54;34.76;94818.03;5053772;28;20037;-79
2022/06/06 07:36:29;;;;;;;19.85;5.85;;;;;;;33.48;35.62;94833.00;5052797;28;20044;-79
2022/06/06 07:39:15;;;;;;;21.55;5.40;;;;;;;33.40;35.72;94838.38;5048680;28;20116;-78
2022/06/06 07:42:18;;;;;;;21.42;6.68;;;;;;;32.62;37.70;94832.38;5043074;28;20029;-78
2022/06/06 07:44:51;;;;;;;17.38;5.07;;;;;;;32.42;38.71;94836.44;5058132;28;20116;-79
2022/06/06 07:47:43;;;;;;;23.23;5.40;;;;;;;32.71;37.49;94824.75;5051677;28;20040;-78
2022/06/06 07:50:20;;;;;;;18.73;5.32;;;;;;;33.00;37.32;94830.38;5050348;28;20388;-78
2022/06/06 07:53:12;;;;;;;15.20;5.13;;;;;;;32.64;36.52;94826.63;5049812;28;20032;-78
2022/06/06 07:56:05;;;;;;;18.08;5.22;;;;;;;32.65;36.68;94828.94;5041145;28;20036;-77
2022/06/06 07:58:45;;;;;;;18.50;5.70;;;;;;;32.69;36.39;94829.72;5033192;28;20040;-78
2022/06/06 08:01:37;;;;;;;19.98;5.38;;;;;;;32.87;37.37;94827.22;5054850;22;20045;-78
2022/06/06 08:04:42;;;;;;;22.80;5.30;;;;;;;32.91;36.21;94829.94;5069484;28;20051;-78
2022/06/06 08:07:35;;;;;;;18.45;4.90;;;;;;;33.12;34.93;94825.47;5068461;28;20408;-77
2022/06/06 08:10:16;;;;;;;21.65;4.65;;;;;;;33.06;33.76;94834.28;5043204;22;20511;-77
2022/06/06 08:12:44;;;;;;;22.83;5.68;;;;;;;32.56;34.20;94841.94;5031698;28;20033;-77
2022/06/06 08:15:21;;;;;;;13.90;4.82;;;;;;;32.13;34.83;94843.41;5113032;22;20041;-78
2022/06/06 08:18:22;;;;;;;18.73;4.60;;;;;;;31.43;37.00;94841.41;5022232;28;20033;-81
2022/06/06 08:20:56;;;;;;;17.25;4.43;;;;;;;31.05;37.35;94845.81;5024450;28;20092;-80
2022/06/06 08:23:22;;;;;;;19.42;4.68;;;;;;;30.80;38.25;94844.69;5005505;28;20033;-80
2022/06/06 08:25:48;;;;;;;14.13;3.55;;;;;;;30.61;37.65;94842.81;4995582;28;20040;-80
2022/06/06 08:28:13;;;;;;;16.58;4.90;;;;;;;30.41;38.39;94845.53;4991965;28;20480;-80
2022/06/06 08:30:39;;;;;;;13.73;4.05;;;;;;;30.60;38.82;94846.63;4976695;28;20067;-82
2022/06/06 08:33:04;;;;;;;17.92;4.38;;;;;;;30.89;38.98;94851.34;5006730;28;20029;-80
2022/06/06 08:35:49;;;;;;;15.18;4.60;;;;;;;31.24;38.39;94853.03;5006980;28;20033;-81
2022/06/06 08:38:43;;;;;;;21.50;4.45;;;;;;;31.30;37.15;94848.91;5020253;28;20087;-80
2022/06/06 08:41:24;;;;;;;16.17;3.90;;;;;;;31.42;37.05;94839.84;5004609;28;20536;-79
2022/06/06 08:44:02;;;;;;;13.82;4.10;;;;;;;31.39;35.58;94838.66;5024429;28;20033;-79
2022/06/06 08:46:41;;;;;;;12.57;4.40;;;;;;;31.28;36.67;94843.91;5004570;28;20041;-80
2022/06/06 08:50:44;;;;;;;17.33;3.80;;;;;;;31.12;36.69;94850.53;5012004;28;20040;-80
2022/06/06 08:52:11;;;;;;;18.73;3.95;;;;;;;30.73;37.29;94851.47;5023282;28;20121;-81
2022/06/06 08:55:21;;;;;;;16.30;4.50;;;;;;;30.05;38.28;94849.50;5023256;28;20034;-82
2022/06/06 08:58:23;;;;;;;21.27;4.78;;;;;;;28.88;39.79;94858.44;4971563;28;20533;-79
2022/06/06 09:00:56;;;;;;;19.40;5.75;;;;;;;27.86;42.34;94856.56;5040419;28;20045;-79
2022/06/06 09:03:47;;;;;;;13.55;3.25;;;;;;;26.56;41.79;94879.66;5022866;28;20034;-79
2022/06/06 09:06:35;;;;;;;7.10;2.50;;;;;;;25.66;43.10;94883.72;5045589;28;20025;-80
2022/06/06 09:09:20;;;;;;;8.95;3.10;;;;;;;25.16;43.40;94894.41;5030569;22;20050;-80
2022/06/06 09:12:22;;;;;;;16.20;3.22;;;;;;;24.71;44.93;94896.75;5032883;28;20033;-80
2022/06/06 09:15:26;;;;;;;14.63;3.20;;;;;;;24.43;49.15;94886.56;5033059;28;20033;-80
2022/06/06 09:18:29;;;;;;;16.70;3.45;;;;;;;24.31;49.33;94902.38;5013934;28;20074;-80
2022/06/06 09:21:17;;;;;;;15.05;4.35;;;;;;;23.63;55.31;94930.50;5028682;28;20547;-80
2022/06/06 09:23:49;;;;;;;9.55;4.38;;;;;;;22.87;57.66;94929.97;5033791;28;20034;-79
2022/06/06 09:26:31;;;;;;;8.40;4.45;;;;;;;22.70;59.10;94939.38;5037274;28;20036;-79
2022/06/06 09:29:21;;;;;;;7.55;4.32;;;;;;;22.46;59.67;94923.81;5022037;28;20037;-79
2022/06/06 09:31:58;;;;;;;9.52;4.05;;;;;;;22.48;59.81;94918.22;5015653;28;20041;-79
2022/06/06 09:34:32;;;;;;;12.55;4.07;;;;;;;22.65;58.61;94912.22;5032148;28;20037;-79
2022/06/06 09:37:20;;;;;;;11.38;3.97;;;;;;;22.74;57.67;94918.31;5031622;28;20038;-79
2022/06/06 09:39:52;;;;;;;10.57;4.05;;;;;;;23.15;57.51;94931.31;5030717;28;20520;-80
2022/06/06 09:42:40;;;;;;;8.45;4.00;;;;;;;23.44;56.81;94924.66;5030946;28;20131;-80
2022/06/06 09:45:18;;;;;;;14.57;3.95;;;;;;;23.54;56.05;94942.94;4998042;28;20087;-80
2022/06/06 09:47:55;;;;;;;10.30;4.43;;;;;;;23.41;56.86;94933.22;5030721;28;20451;-80
2022/06/06 09:50:39;;;;;;;11.38;4.05;;;;;;;23.57;56.10;94923.75;5030407;28;20083;-80
2022/06/06 09:53:07;;;;;;;8.07;4.05;;;;;;;23.81;54.86;94910.81;5031683;28;20048;-80
2022/06/06 09:59:25;;;;;;;6.63;3.53;;;;;;;24.62;50.33;94901.34;5032990;28;20052;-80
2022/06/06 10:02:12;;;;;;;20.15;3.55;;;;;;;25.03;49.58;94904.16;5035834;28;20501;-80
2022/06/06 10:05:15;;;;;;;8.35;3.95;;;;;;;25.33;50.01;94912.16;5033278;28;20037;-80
2022/06/06 10:07:58;;;;;;;8.50;3.95;;;;;;;25.39;48.32;94916.19;5033189;28;20041;-81
2022/06/06 10:10:43;;;;;;;13.35;3.80;;;;;;;25.25;47.42;94916.44;5017671;28;20041;-81
2022/06/06 10:13:35;;;;;;;10.85;3.40;;;;;;;25.27;48.45;94902.81;5035205;28;20036;-80
2022/06/06 10:16:14;;;;;;;6.20;3.58;;;;;;;25.25;48.79;94923.63;5035044;28;20048;-80
2022/06/06 10:19:02;;;;;;;8.75;2.85;;;;;;;24.91;48.95;94941.31;5018390;28;20017;-80
2022/06/06 10:21:40;;;;;;;13.23;3.17;;;;;;;24.24;50.43;94958.63;5017666;28;20045;-80
2022/06/06 10:24:28;;;;;;;8.85;3.85;;;;;;;23.49;55.22;94970.41;5034250;28;20033;-80
2022/06/06 10:26:58;;;;;;;10.18;3.90;;;;;;;22.97;58.52;94958.88;5034803;28;20093;-80
2022/06/06 10:32:52;;;;;;;9.77;3.08;;;;;;;22.60;57.89;94944.91;5006539;28;20512;-80
2022/06/06 10:35:21;;;;;;;11.10;4.07;;;;;;;22.74;60.04;94952.78;5033047;28;20038;-80
2022/06/06 10:37:48;;;;;;;13.10;5.57;;;;;;;22.81;61.19;94960.31;5016841;28;20045;-80
2022/06/06 10:40:25;;;;;;;15.90;5.50;;;;;;;22.84;61.66;94952.56;5033173;28;20120;-81
2022/06/06 10:43:36;;;;;;;17.15;5.03;;;;;;;22.88;60.16;94950.84;5016499;28;20037;-80
2022/06/06 10:46:02;;;;;;;10.40;5.18;;;;;;;22.88;60.77;94934.16;5032123;28;20420;-81
2022/06/06 10:48:30;;;;;;;7.40;3.88;;;;;;;22.83;60.49;94905.94;5035147;28;20033;-80
2022/06/06 10:51:40;;;;;;;9.23;4.25;;;;;;;22.88;59.43;94912.97;5017462;28;20120;-79
2022/06/06 10:54:31;;;;;;;6.38;4.20;;;;;;;22.89;60.87;94936.50;5024788;28;20049;-80
2022/06/06 10:57:02;;;;;;;10.93;5.05;;;;;;;22.86;59.70;94941.66;5029264;28;20136;-77
2022/06/06 10:59:42;;;;;;;15.57;4.63;;;;;;;22.85;59.76;94935.56;5143472;22;20467;-78
2022/06/06 11:02:13;;;;;;;11.80;4.18;;;;;;;22.87;59.33;94933.38;5025375;28;20037;-78
2022/06/06 11:05:23;;;;;;;8.23;4.05;;;;;;;22.94;58.61;94915.19;5031591;28;20104;-78
2022/06/06 11:08:04;;;;;;;13.73;5.03;;;;;;;23.03;60.08;94909.88;5000574;28;20037;-78
2022/06/06 11:11:06;;;;;;;9.45;5.32;;;;;;;23.00;59.04;94905.22;5027879;28;20030;-78
2022/06/06 11:14:11;;;;;;;8.57;5.35;;;;;;;23.13;59.41;94914.91;5029221;28;20025;-78
2022/06/06 11:16:44;;;;;;;12.68;5.07;;;;;;;23.30;59.28;94920.28;5012930;22;20052;-78
2022/06/06 11:19:47;;;;;;;14.82;5.05;;;;;;;23.40;59.00;94927.13;5018270;28;20033;-78
2022/06/06 11:22:18;;;;;;;9.05;4.20;;;;;;;23.54;57.57;94934.97;5030602;28;20386;-78
2022/06/06 11:24:58;;;;;;;8.25;4.10;;;;;;;23.56;56.91;94932.78;5030742;28;20033;-78
2022/06/06 11:27:35;;;;;;;10.85;3.90;;;;;;;23.43;56.82;94928.38;5216487;22;20053;-78
2022/06/06 11:30:38;;;;;;;10.57;4.32;;;;;;;23.41;56.79;94925.25;5023364;28;20052;-77
2022/06/06 11:33:46;;;;;;;13.88;3.70;;;;;;;23.44;56.69;94920.16;5013241;28;20030;-78
2022/06/06 11:36:40;;;;;;;5.18;3.55;;;;;;;23.54;57.68;94913.75;5013054;28;20084;-78
2022/06/06 11:39:20;;;;;;;10.82;4.75;;;;;;;23.76;59.05;94929.56;5011407;28;20027;-79
2022/06/06 11:42:04;;;;;;;12.23;3.58;;;;;;;23.72;57.87;94910.03;5004430;28;20037;-79
2022/06/06 11:44:30;;;;;;;5.50;3.72;;;;;;;23.70;56.24;94896.28;4995371;28;20029;-77
2022/06/06 11:46:58;;;;;;;6.13;3.20;;;;;;;23.60;55.20;94886.78;5020362;28;20042;-77
2022/06/06 11:49:48;;;;;;;4.35;3.95;;;;;;;23.78;56.04;94897.41;5013593;28;20069;-78
2022/06/06 11:52:34;;;;;;;5.55;3.50;;;;;;;24.23;55.61;94903.13;5014881;28;20124;-78
2022/06/06 11:55:28;;;;;;;8.60;4.18;;;;;;;24.60;54.43;94917.63;5038443;23;20049;-78
2022/06/06 11:58:27;;;;;;;5.90;3.15;;;;;;;24.65;52.83;94919.31;5032380;28;20022;-79
2022/06/06 12:01:24;;;;;;;8.15;3.85;;;;;;;24.68;53.94;94926.66;5033176;28;20037;-79
2022/06/06 12:04:08;;;;;;;11.05;3.47;;;;;;;24.70;52.97;94932.44;5021690;28;20037;-79
2022/06/06 12:06:40;;;;;;;6.22;4.00;;;;;;;24.60;52.90;94927.47;5032205;28;20060;-79
2022/06/06 12:09:35;;;;;;;4.25;3.85;;;;;;;24.43;54.12;94917.66;5018768;28;20033;-78
2022/06/06 12:12:25;;;;;;;6.70;3.75;;;;;;;24.29;52.91;94901.91;5035562;28;20033;-78
2022/06/06 12:15:10;;;;;;;6.95;3.92;;;;;;;24.12;54.87;94885.97;5005388;28;20037;-78
2022/06/06 12:18:11;;;;;;;6.25;3.42;;;;;;;23.99;54.22;94881.59;5016446;28;20068;-79
2022/06/06 12:20:52;;;;;;;5.90;3.95;;;;;;;23.78;54.83;94871.63;5032014;28;20041;-79
2022/06/06 12:23:56;;;;;;;4.80;3.67;;;;;;;23.66;56.33;94868.81;5015984;28;20045;-78
2022/06/06 12:26:58;;;;;;;4.80;4.30;;;;;;;23.45;56.63;94875.81;5016197;28;20336;-78
2022/06/06 12:29:32;;;;;;;9.07;4.55;;;;;;;23.35;56.73;94893.56;5032154;28;20037;-78
2022/06/06 12:32:02;;;;;;;8.52;4.30;;;;;;;23.41;57.16;94902.16;5030834;28;20044;-77
2022/06/06 12:34:49;;;;;;;8.38;5.22;;;;;;;23.49;56.29;94901.41;5015108;28;20090;-78
2022/06/06 12:37:25;;;;;;;11.95;3.50;;;;;;;23.42;55.90;94901.06;5014213;28;20050;-78
2022/06/06 12:40:00;;;;;;;4.75;4.28;;;;;;;23.59;56.78;94910.94;5014264;28;21017;-78
2022/06/06 12:42:35;;;;;;;6.13;4.10;;;;;;;23.63;55.94;94920.66;5031942;28;20103;-78
2022/06/06 12:45:33;;;;;;;4.25;3.95;;;;;;;23.57;56.01;94915.78;5013815;28;20029;-78
2022/06/06 12:48:01;;;;;;;4.55;4.15;;;;;;;23.48;55.89;94913.13;5021613;28;20033;-78
2022/06/06 12:50:39;;;;;;;5.05;3.80;;;;;;;23.34;56.15;94894.66;5037383;28;20033;-78
2022/06/06 12:53:25;;;;;;;5.40;3.80;;;;;;;23.46;56.46;94890.63;5040277;28;20497;-78